Flight Track Log - Related Links

Times and Time Zones

All times are in EDT time to prevent confusion due to time zone crossing. See the DAL61 flight status page for this flight to view local times or setup timezone preferences in your user account.

Time Position Orientation Groundspeed Altitude Reporting Facility
EDT Latitude Longitude Course Direction KTS MPH feet Rate Location/Type
Wed 06:42:29 PM 40.8167 -73.9167 270° West 194 223 2,200  Level New York TRACON
Wed 06:43:35 PM 40.8833 -73.9667 330° Northwest 260 299 5,300 3,050 Climbing New York TRACON
Wed 06:44:00 PM 40.7405 -74.3244 264° West  Level FlightAware Approximate
Wed 06:44:29 PM 40.9500 -74.0167 330° Northwest 269 310 8,300  Level New York TRACON
Wed 06:45:00 PM 40.7287 -74.4775 264° West  Level FlightAware Approximate
Wed 06:45:29 PM 40.9333 -74.1000 255° West 254 292 11,400  Level New York TRACON
Wed 06:46:00 PM 40.7169 -74.6306 264° West  Level FlightAware Approximate
Wed 06:46:29 PM 40.9167 -74.2000 258° West 267 307 14,400  Level New York TRACON
Wed 06:47:00 PM 40.7000 -74.7779 270° West  Level FlightAware Approximate
Wed 06:47:35 PM 40.8500 -74.2500 210° Southwest 303 349 15,400  Level New York TRACON
Wed 06:48:29 PM 40.7667 -74.2667 189° South 309 356 17,000 800 Climbing New York TRACON
Wed 06:49:35 PM 40.7167 -74.3500 232° Southwest 296 341 17,000  Level New York TRACON
Wed 06:51:53 PM 40.8847 -74.4792 330° Northwest 317 365 17,000  Level New York Center
Wed 06:52:51 PM 40.9514 -74.5406 325° Northwest 297 342 17,000  Level New York Center
Wed 06:53:52 PM 40.9461 -74.6417 266° West 257 296 17,000  Level New York Center
Wed 06:54:52 PM 40.8539 -74.6558 187° South 231 266 17,000  Level New York Center
Wed 06:55:53 PM 40.7719 -74.6811 193° South 289 333 17,000 347 Level New York Center
Wed 06:56:53 PM 40.7411 -74.7889 249° West 279 321 17,700 1,000 Climbing New York Center
Wed 06:57:53 PM 40.7186 -74.8972 255° West 322 371 19,000 1,587 Climbing New York Center
Wed 06:58:54 PM 40.6906 -75.0406 256° West 351 404 20,900 1,932 Climbing New York Center
Wed 06:59:51 PM 40.6483 -75.1692 247° West 374 430 22,800 1,881 Climbing New York Center
Wed 07:00:52 PM 40.5997 -75.2972 243° Southwest 393 452 24,600 1,659 Climbing New York Center
Wed 07:01:54 PM 40.5636 -75.4233 249° West 398 458 26,200 1,664 Climbing New York Center
Wed 07:02:51 PM 40.5186 -75.5569 246° West 403 464 27,900 1,576 Climbing New York Center
Wed 07:03:52 PM 40.4692 -75.6953 245° Southwest 409 471 29,300 1,230 Climbing New York Center
Wed 07:04:53 PM 40.4214 -75.8392 246° West 415 478 30,400 1,328 Climbing New York Center
Wed 07:05:54 PM 40.3664 -76.0014 246° West 437 503 32,000 1,769 Climbing New York Center
Wed 07:07:29 PM 40.2578 -76.2111 236° Southwest 422 486 35,000 1,538 Climbing Washington Center
Wed 07:08:30 PM 40.1925 -76.3383 236° Southwest 422 486 36,000 500 Climbing Washington Center
Wed 07:09:29 PM 40.1336 -76.4517 236° Southwest 422 486 36,000  Level Washington Center
Wed 07:10:29 PM 40.0617 -76.5969 237° Southwest 427 491 36,000  Level Washington Center
Wed 07:11:29 PM 40.0311 -76.7483 255° West 422 486 36,000  Level Washington Center
Wed 07:12:30 PM 40.0069 -76.8781 256° West 422 486 36,000  Level Washington Center
Wed 07:13:31 PM 39.9511 -77.0122 242° Southwest 422 486 36,000  Level Washington Center
Wed 07:14:29 PM 39.8706 -77.1297 228° Southwest 421 484 36,000  Level Washington Center
Wed 07:15:30 PM 39.7919 -77.2494 230° Southwest 431 496 36,000  Level Washington Center
Wed 07:16:31 PM 39.7111 -77.3664 228° Southwest 437 503 36,000  Level Washington Center
Wed 07:17:29 PM 39.6322 -77.4883 230° Southwest 442 509 36,000  Level Washington Center
Wed 07:18:31 PM 39.5511 -77.6072 229° Southwest 442 509 36,000  Level Washington Center
Wed 07:19:29 PM 39.4533 -77.7042 217° Southwest 447 514 36,000  Level Washington Center
Wed 07:20:30 PM 39.3558 -77.8006 217° Southwest 447 514 36,000  Level Washington Center
Wed 07:21:30 PM 39.2542 -77.8886 214° Southwest 447 514 36,000  Level Washington Center
Wed 07:22:31 PM 39.1344 -77.9436 200° South 447 514 36,000  Level Washington Center
Wed 07:23:29 PM 39.0164 -77.9986 200° South 447 514 36,000  Level Washington Center
Wed 07:24:30 PM 38.9006 -78.0669 205° Southwest 459 528 36,000  Level Washington Center
Wed 07:25:31 PM 38.8006 -78.1594 216° Southwest 454 522 36,000  Level Washington Center
Wed 07:26:29 PM 38.7044 -78.2653 221° Southwest 454 522 36,000  Level Washington Center
Wed 07:27:30 PM 38.6083 -78.3681 220° Southwest 454 522 36,000  Level Washington Center
Wed 07:28:31 PM 38.5119 -78.4706 220° Southwest 454 522 36,000  Level Washington Center
Wed 07:29:31 PM 38.4136 -78.5728 219° Southwest 459 528 36,000 153 Level Washington Center
Wed 07:30:29 PM 38.3172 -78.6775 220° Southwest 459 528 36,300 756 Climbing Washington Center
Wed 07:31:30 PM 38.2269 -78.7742 220° Southwest 459 528 37,500 836 Climbing Washington Center
Wed 07:32:31 PM 38.1283 -78.8781 220° Southwest 454 522 38,000 248 Climbing Washington Center
Wed 07:33:31 PM 38.0317 -78.9767 219° Southwest 461 531 38,000  Level Washington Center
Wed 07:34:31 PM 37.9264 -79.0878 220° Southwest 461 531 38,000  Level Washington Center
Wed 07:35:29 PM 37.8353 -79.1994 224° Southwest 461 531 38,000  Level Washington Center
Wed 07:36:31 PM 37.7525 -79.3189 229° Southwest 461 531 38,000  Level Washington Center
Wed 07:37:29 PM 37.6653 -79.4406 228° Southwest 466 536 38,000  Level Washington Center
Wed 07:38:31 PM 37.5867 -79.5467 227° Southwest 472 543 38,000  Level Washington Center
Wed 07:39:29 PM 37.4906 -79.6778 227° Southwest 472 543 38,000  Level Washington Center
Wed 07:40:29 PM 37.4028 -79.7983 228° Southwest 472 543 38,000  Level Washington Center
Wed 07:41:30 PM 37.3172 -79.9139 227° Southwest 472 543 38,000  Level Washington Center
Wed 07:43:06 PM 37.1894 -80.0842 227° Southwest 455 524 38,000  Level Atlanta Center
Wed 07:44:06 PM 37.1033 -80.1978 226° Southwest 455 524 38,000  Level Atlanta Center
Wed 07:45:06 PM 37.0114 -80.3217 227° Southwest 450 518 38,000  Level Atlanta Center
Wed 07:46:06 PM 36.9272 -80.4347 227° Southwest 450 518 38,000  Level Atlanta Center
Wed 07:47:06 PM 36.8408 -80.5528 228° Southwest 456 525 38,000  Level Atlanta Center
Wed 07:48:06 PM 36.7544 -80.6653 226° Southwest 456 525 38,000  Level Atlanta Center
Wed 07:49:06 PM 36.6678 -80.7803 227° Southwest 461 531 38,000  Level Atlanta Center
Wed 07:50:06 PM 36.5792 -80.8978 227° Southwest 466 536 38,000  Level Atlanta Center
Wed 07:51:06 PM 36.4883 -81.0200 227° Southwest 471 542 38,000  Level Atlanta Center
Wed 07:52:06 PM 36.3994 -81.1369 227° Southwest 476 548 38,000 -50 Level Atlanta Center
Wed 07:53:06 PM 36.3125 -81.2533 227° Southwest 476 548 37,900 -600 Descending Atlanta Center
Wed 07:54:06 PM 36.2333 -81.3592 227° Southwest 471 542 36,800 -950 Descending Atlanta Center
Wed 07:55:06 PM 36.1442 -81.4728 226° Southwest 466 536 36,000 -400 Descending Atlanta Center
Wed 07:56:06 PM 36.0547 -81.5936 228° Southwest 461 531 36,000  Level Atlanta Center
Wed 07:57:06 PM 35.9672 -81.7042 226° Southwest 461 531 36,000  Level Atlanta Center
Wed 07:58:06 PM 35.8736 -81.8272 227° Southwest 461 531 36,000 -500 Level Atlanta Center
Wed 07:59:06 PM 35.7817 -81.9422 225° Southwest 461 531 35,000 -500 Descending Atlanta Center
Wed 08:00:06 PM 35.6919 -82.0572 226° Southwest 467 537 35,000  Level Atlanta Center
Wed 08:01:06 PM 35.5956 -82.1719 224° Southwest 478 550 35,000  Level Atlanta Center
Wed 08:02:07 PM 35.4969 -82.2811 222° Southwest 483 556 35,000 -600 Level Atlanta Center
Wed 08:03:06 PM 35.3983 -82.3928 223° Southwest 490 564 33,800 -1,059 Descending Atlanta Center
Wed 08:04:06 PM 35.3019 -82.5067 224° Southwest 490 564 32,900 -900 Descending Atlanta Center
Wed 08:05:06 PM 35.2031 -82.6103 221° Southwest 485 558 32,000 -800 Descending Atlanta Center
Wed 08:06:06 PM 35.1061 -82.7186 222° Southwest 485 558 31,300 -850 Descending Atlanta Center
Wed 08:07:06 PM 35.0092 -82.8292 223° Southwest 475 547 30,300 -1,100 Descending Atlanta Center
Wed 08:08:06 PM 34.9058 -82.9369 221° Southwest 468 539 29,100 -1,200 Descending Atlanta Center
Wed 08:09:06 PM 34.8169 -83.0369 223° Southwest 448 516 27,900 -1,250 Descending Atlanta Center
Wed 08:10:06 PM 34.7322 -83.1339 223° Southwest 430 495 26,600 -1,650 Descending Atlanta Center
Wed 08:11:06 PM 34.6472 -83.2283 222° Southwest 425 489 24,600 -1,950 Descending Atlanta Center
Wed 08:12:06 PM 34.5622 -83.3225 222° Southwest 417 480 22,700 -1,900 Descending Atlanta Center
Wed 08:13:06 PM 34.4814 -83.4089 221° Southwest 402 463 20,800 -1,800 Descending Atlanta Center
Wed 08:14:06 PM 34.4044 -83.4950 223° Southwest 389 448 19,100 -1,300 Descending Atlanta Center
Wed 08:15:06 PM 34.3278 -83.5783 222° Southwest 382 440 18,200 -1,600 Descending Atlanta Center
Wed 08:16:06 PM 34.2633 -83.6542 224° Southwest 376 433 15,900 -2,200 Descending Atlanta Center
Wed 08:17:06 PM 34.1883 -83.7325 221° Southwest 364 419 13,800 -1,800 Descending Atlanta Center
Wed 08:18:06 PM 34.1175 -83.8106 222° Southwest 364 419 12,300 -1,100 Descending Atlanta Center
Wed 08:19:06 PM 34.0550 -83.8783 222° Southwest 332 382 11,600 -1,050 Descending Atlanta Center
Wed 08:20:06 PM 33.9944 -83.9436 222° Southwest 298 343 10,200 -1,250 Descending Atlanta Center
Wed 08:21:06 PM 33.9217 -83.9811 203° Southwest 278 320 9,100 -550 Descending Atlanta Center
Wed 08:22:06 PM 33.8361 -83.9889 184° South 278 320 9,100 -550 Level Atlanta Center
Wed 08:23:06 PM 33.7589 -83.9939 183° South 285 328 8,000 -1,150 Descending Atlanta Center
Wed 08:24:06 PM 33.6858 -83.9989 183° South 279 321 6,800 -850 Descending Atlanta Center
Wed 08:25:06 PM 33.6419 -84.0561 227° Southwest 236 272 6,300 -745 Descending Atlanta Center
Wed 08:26:31 PM 33.6333 -84.1500 264° West 220 253 5,000 -952 Descending Atlanta TRACON
Wed 08:27:31 PM 33.6333 -84.2167 270° West 193 222 4,000 -1,000 Descending Atlanta TRACON

Login

Don't have an account? Register now (free) for customized features, flight alerts, and more!